createdAt,value
2022-08-17T00:00:42.830Z,96979.19
2022-08-17T00:03:10.789Z,96972.94
2022-08-17T00:05:42.976Z,96974.56
2022-08-17T00:08:13.032Z,96979.81
2022-08-17T00:10:41.703Z,96983.16
2022-08-17T00:13:12.337Z,96980.59
2022-08-17T00:15:40.652Z,96974.28
2022-08-17T00:18:57.427Z,96973.94
2022-08-17T00:20:59.453Z,96973.22
2022-08-17T00:23:29.364Z,96970.38
2022-08-17T00:25:57.957Z,96975.47
2022-08-17T00:28:26.380Z,96982.84
2022-08-17T00:30:59.412Z,96973.88
2022-08-17T00:33:30.345Z,96973.78
2022-08-17T00:36:00.140Z,96979.28
2022-08-17T00:38:30.418Z,96977.47
2022-08-17T00:41:00.738Z,96976.06
2022-08-17T00:43:34.517Z,96979.06
2022-08-17T00:46:04.549Z,96970.38
2022-08-17T00:48:34.059Z,96981.88
2022-08-17T00:51:07.268Z,96977.25
2022-08-17T00:53:40.630Z,96985.63
2022-08-17T00:56:12.611Z,96983.09
2022-08-17T00:58:41.381Z,96980.66
2022-08-17T01:01:10.618Z,96981.53
2022-08-17T01:03:39.618Z,96986.16
2022-08-17T01:06:10.062Z,96980.97
2022-08-17T01:08:40.562Z,96982.88
2022-08-17T01:11:12.255Z,96989.09
2022-08-17T01:13:43.388Z,96986.81
2022-08-17T01:16:17.144Z,96989.06
2022-08-17T01:18:48.752Z,96992.38
2022-08-17T01:21:24.254Z,96993.44
2022-08-17T01:23:53.870Z,96994.19
2022-08-17T01:26:22.763Z,96991.22
2022-08-17T01:28:55.142Z,96990.69
2022-08-17T01:31:26.313Z,96982.63
2022-08-17T01:33:54.589Z,96983.38
2022-08-17T01:36:22.968Z,96982.00
2022-08-17T01:38:51.256Z,96985.84
2022-08-17T01:41:23.027Z,96985.25
2022-08-17T01:43:54.081Z,96994.06
2022-08-17T01:46:27.092Z,96979.59
2022-08-17T01:48:56.395Z,96985.88
2022-08-17T01:51:25.023Z,96991.59
2022-08-17T01:53:55.654Z,96984.16
2022-08-17T01:56:26.026Z,96987.97
2022-08-17T01:58:54.728Z,96984.66
2022-08-17T02:01:26.616Z,96986.81
2022-08-17T02:04:00.504Z,96982.97
2022-08-17T02:06:52.558Z,96984.09
2022-08-17T02:09:23.206Z,96976.97
2022-08-17T02:11:54.238Z,96982.84
2022-08-17T02:14:22.764Z,96978.44
2022-08-17T02:16:51.153Z,96983.47
2022-08-17T02:19:19.389Z,96981.66
2022-08-17T02:21:49.892Z,96981.22
2022-08-17T02:24:58.210Z,96979.84
2022-08-17T02:27:11.876Z,96974.94
2022-08-17T02:29:40.185Z,96981.47
2022-08-17T02:32:20.629Z,96978.91
2022-08-17T02:34:56.990Z,96976.19
2022-08-17T02:37:25.831Z,96975.97
2022-08-17T02:39:54.162Z,96974.78
2022-08-17T02:42:28.652Z,96980.94
2022-08-17T02:44:56.965Z,96980.16
2022-08-17T02:47:25.743Z,96979.28
2022-08-17T02:49:56.070Z,96975.81
2022-08-17T02:52:42.565Z,96981.13
2022-08-17T02:55:14.774Z,96985.59
2022-08-17T02:57:44.705Z,96984.63
2022-08-17T03:00:16.516Z,96981.44
2022-08-17T03:02:45.792Z,96988.16
2022-08-17T03:05:16.335Z,96983.44
2022-08-17T03:07:44.627Z,96988.50
2022-08-17T03:10:13.311Z,96984.78
2022-08-17T03:12:44.594Z,96981.03
2022-08-17T03:15:16.617Z,96973.22
2022-08-17T03:17:45.351Z,96976.50
2022-08-17T03:20:14.517Z,96971.16
2022-08-17T03:22:48.109Z,96973.88
2022-08-17T03:25:24.700Z,96976.22
2022-08-17T03:27:56.783Z,96971.94
2022-08-17T03:30:26.028Z,96969.69
2022-08-17T03:32:55.945Z,96972.72
2022-08-17T03:35:26.488Z,96961.56
2022-08-17T03:38:00.173Z,96973.00
2022-08-17T03:40:55.677Z,96966.56
2022-08-17T03:43:19.561Z,96972.88
2022-08-17T03:46:05.835Z,96965.31
2022-08-17T03:48:56.690Z,96964.69
2022-08-17T03:51:43.309Z,96967.81
2022-08-17T03:54:29.434Z,96967.00
2022-08-17T03:57:02.631Z,96971.22
2022-08-17T03:59:32.358Z,96969.75
2022-08-17T04:02:05.058Z,96965.69
2022-08-17T04:04:33.265Z,96959.38
2022-08-17T04:07:01.482Z,96965.69
2022-08-17T04:09:29.753Z,96969.75
2022-08-17T04:12:00.273Z,96967.81
2022-08-17T04:14:39.329Z,96975.97
2022-08-17T04:17:23.366Z,96975.13
2022-08-17T04:19:51.607Z,96978.88
2022-08-17T04:22:30.803Z,96981.00
2022-08-17T04:25:03.906Z,96984.69
2022-08-17T04:27:32.267Z,96991.47
2022-08-17T04:30:01.993Z,96982.19
2022-08-17T04:33:03.939Z,96989.81
2022-08-17T04:35:20.465Z,96986.25
2022-08-17T04:37:48.755Z,96982.69
2022-08-17T04:40:35.510Z,96984.56
2022-08-17T04:43:05.506Z,96987.22
2022-08-17T04:45:35.792Z,96989.66
2022-08-17T04:48:04.617Z,96994.66
2022-08-17T04:50:32.908Z,96997.91
2022-08-17T04:53:01.470Z,96987.22
2022-08-17T04:55:30.040Z,96990.31
2022-08-17T04:57:58.937Z,96982.19
2022-08-17T05:00:27.401Z,96995.41
2022-08-17T05:02:57.893Z,96997.78
2022-08-17T05:05:28.157Z,96998.38
2022-08-17T05:07:59.451Z,97000.72
2022-08-17T05:10:36.151Z,97007.56
2022-08-17T05:13:10.727Z,97014.56
2022-08-17T05:15:44.856Z,97012.91
2022-08-17T05:18:16.750Z,97004.50
2022-08-17T05:20:48.625Z,97007.69
2022-08-17T05:23:27.217Z,97013.06
2022-08-17T05:26:20.395Z,97014.16
2022-08-17T05:28:59.581Z,97016.19
2022-08-17T05:31:34.409Z,97011.31
2022-08-17T05:34:20.926Z,97009.91
2022-08-17T05:36:51.458Z,97007.84
2022-08-17T05:39:26.893Z,97011.19
2022-08-17T05:41:56.689Z,97011.31
2022-08-17T05:44:27.833Z,97004.28
2022-08-17T05:46:58.390Z,97000.81
2022-08-17T05:49:31.275Z,96997.41
2022-08-17T05:52:14.771Z,97007.72
2022-08-17T05:55:06.867Z,97000.59
2022-08-17T05:57:53.532Z,97004.38
2022-08-17T06:00:30.633Z,97007.09
2022-08-17T06:03:26.288Z,97014.13
2022-08-17T06:06:33.319Z,97012.09
2022-08-17T06:09:12.723Z,97002.19
2022-08-17T06:11:47.430Z,97008.84
2022-08-17T06:14:43.180Z,97006.59
2022-08-17T06:17:14.048Z,96994.56
2022-08-17T06:19:45.451Z,96992.63
2022-08-17T06:22:17.121Z,96996.25
2022-08-17T06:24:50.121Z,96996.16
2022-08-17T06:27:25.083Z,96993.34
2022-08-17T06:29:57.101Z,96996.13
2022-08-17T06:32:25.936Z,96985.91
2022-08-17T06:34:54.283Z,96994.13
2022-08-17T06:37:57.615Z,96986.41
2022-08-17T06:40:40.028Z,96989.44
2022-08-17T06:43:19.491Z,96990.06
2022-08-17T06:45:51.958Z,96994.19
2022-08-17T06:48:26.831Z,96999.63
2022-08-17T06:51:00.215Z,96991.81
2022-08-17T06:53:33.595Z,96994.50
2022-08-17T06:56:07.280Z,96989.88
2022-08-17T06:58:38.916Z,96979.25
2022-08-17T07:01:12.429Z,96986.78
2022-08-17T07:03:45.136Z,96976.34
2022-08-17T07:06:19.011Z,96973.94
2022-08-17T07:09:05.772Z,96970.31
2022-08-17T07:11:39.171Z,96981.56
2022-08-17T07:14:17.308Z,96983.66
2022-08-17T07:16:48.162Z,96979.22
2022-08-17T07:19:19.710Z,96976.59
2022-08-17T07:21:51.861Z,96978.56
2022-08-17T07:24:30.741Z,96973.66
2022-08-17T07:27:15.107Z,96974.50
2022-08-17T07:29:49.621Z,96980.47
2022-08-17T07:32:23.827Z,96980.28
2022-08-17T07:35:17.026Z,96970.47
2022-08-17T07:37:53.286Z,96981.53
2022-08-17T07:40:29.755Z,96972.28
2022-08-17T07:43:23.035Z,96978.72
2022-08-17T07:46:13.288Z,96977.81
2022-08-17T07:48:43.890Z,96975.63
2022-08-17T07:51:26.998Z,96977.00
2022-08-17T07:54:13.117Z,96981.56
2022-08-17T07:56:47.557Z,96981.47
2022-08-17T07:59:23.185Z,96974.00
2022-08-17T08:02:31.690Z,96981.31
2022-08-17T08:05:06.767Z,96983.41
2022-08-17T08:07:40.247Z,96977.59
2022-08-17T08:10:11.703Z,96979.75
2022-08-17T08:12:44.798Z,96979.91
2022-08-17T08:15:19.072Z,96984.06
2022-08-17T08:17:52.337Z,96984.97
2022-08-17T08:20:51.555Z,96993.69
2022-08-17T08:23:33.457Z,97000.16
2022-08-17T08:26:18.477Z,96994.34
2022-08-17T08:28:52.951Z,96995.25
2022-08-17T08:31:27.281Z,96993.03
2022-08-17T08:34:06.614Z,97000.88
2022-08-17T08:37:14.226Z,96996.72
2022-08-17T08:39:35.872Z,96988.88
2022-08-17T08:42:08.788Z,96993.97
2022-08-17T08:45:00.086Z,96990.28
2022-08-17T08:47:44.532Z,96993.53
2022-08-17T08:50:37.280Z,97003.97
2022-08-17T08:53:21.429Z,96995.81
2022-08-17T08:55:54.713Z,97002.72
2022-08-17T08:58:31.604Z,97008.97
2022-08-17T09:01:17.049Z,97005.22
2022-08-17T09:04:19.944Z,97000.16
2022-08-17T09:07:00.162Z,96997.66
2022-08-17T09:09:40.033Z,97007.75
2022-08-17T09:12:15.428Z,97006.25
2022-08-17T09:14:46.892Z,97004.28
2022-08-17T09:17:21.081Z,96997.41
2022-08-17T09:19:53.852Z,96997.91
2022-08-17T09:22:31.662Z,97001.97
2022-08-17T09:25:07.022Z,96990.50
2022-08-17T09:27:47.686Z,97001.13
2022-08-17T09:30:16.298Z,96998.19
2022-08-17T09:32:49.992Z,96998.34
2022-08-17T09:35:22.819Z,96998.72
2022-08-17T09:37:57.789Z,96993.16
2022-08-17T09:40:29.579Z,96983.91
2022-08-17T09:43:02.441Z,96974.66
2022-08-17T09:45:33.666Z,96971.38
2022-08-17T09:48:08.670Z,96967.50
2022-08-17T09:51:03.159Z,96964.63
2022-08-17T09:53:31.891Z,96971.13
2022-08-17T09:56:25.137Z,96979.56
2022-08-17T09:59:27.495Z,96968.22
2022-08-17T10:02:27.640Z,96971.06
2022-08-17T10:05:02.435Z,96972.88
2022-08-17T10:07:35.244Z,96967.84
2022-08-17T10:10:14.238Z,96971.00
2022-08-17T10:12:47.402Z,96964.28
2022-08-17T10:15:22.549Z,96962.41
2022-08-17T10:18:07.554Z,96958.75
2022-08-17T10:20:42.979Z,96950.41
2022-08-17T10:23:33.216Z,96948.16
2022-08-17T10:26:15.556Z,96937.50
2022-08-17T10:28:49.343Z,96937.28
2022-08-17T10:31:35.902Z,96935.88
2022-08-17T10:34:30.233Z,96946.94
2022-08-17T10:37:25.229Z,96936.22
2022-08-17T10:39:58.534Z,96941.34
2022-08-17T10:42:32.974Z,96943.56
2022-08-17T10:45:05.530Z,96936.31
2022-08-17T10:48:05.125Z,96935.91
2022-08-17T10:50:49.544Z,96938.22
2022-08-17T10:53:55.999Z,96950.44
2022-08-17T10:56:27.203Z,96940.44
2022-08-17T10:58:57.355Z,96933.78
2022-08-17T11:02:03.325Z,96928.53
2022-08-17T11:04:47.899Z,96934.22
2022-08-17T11:07:21.605Z,96927.09
2022-08-17T11:10:09.746Z,96921.41
2022-08-17T11:12:44.596Z,96922.19
2022-08-17T11:15:25.442Z,96912.50
2022-08-17T11:18:34.783Z,96915.84
2022-08-17T11:21:39.879Z,96907.25
2022-08-17T11:24:17.504Z,96909.66
2022-08-17T11:27:02.437Z,96900.00
2022-08-17T11:29:34.912Z,96908.53
2022-08-17T11:32:11.119Z,96902.44
2022-08-17T11:34:40.320Z,96897.94
2022-08-17T11:37:32.588Z,96884.19
2022-08-17T11:40:26.168Z,96888.97
2022-08-17T11:43:15.618Z,96894.41
2022-08-17T11:45:57.456Z,96888.47
2022-08-17T11:48:53.889Z,96893.47
2022-08-17T11:51:36.087Z,96891.16
2022-08-17T11:57:00.157Z,96886.56
2022-08-17T11:59:59.205Z,96889.09
2022-08-17T12:02:48.521Z,96884.16
2022-08-17T12:05:38.496Z,96887.22
2022-08-17T12:08:14.818Z,96888.47
2022-08-17T12:10:53.655Z,96885.72
2022-08-17T12:13:23.821Z,96883.75
2022-08-17T12:16:00.596Z,96886.09
2022-08-17T12:18:31.841Z,96874.44
2022-08-17T12:21:22.322Z,96880.41
2022-08-17T12:23:57.858Z,96873.84
2022-08-17T12:26:30.294Z,96875.59
2022-08-17T12:29:01.551Z,96872.44
2022-08-17T12:31:37.389Z,96873.13
2022-08-17T12:34:06.358Z,96875.69
2022-08-17T12:36:35.177Z,96872.22
2022-08-17T12:39:14.042Z,96881.19
2022-08-17T12:41:47.067Z,96872.25
2022-08-17T12:44:17.342Z,96861.72
2022-08-17T12:46:56.500Z,96864.56
2022-08-17T12:49:29.186Z,96869.88
2022-08-17T12:52:13.836Z,96869.25
2022-08-17T12:54:52.850Z,96864.81
2022-08-17T12:57:23.571Z,96858.72
2022-08-17T12:59:55.837Z,96861.28
2022-08-17T13:02:40.062Z,96863.19
2022-08-17T13:05:18.037Z,96856.78
2022-08-17T13:07:47.649Z,96860.84
2022-08-17T13:10:25.528Z,96851.22
2022-08-17T13:12:58.181Z,96859.06
2022-08-17T13:15:38.293Z,96855.75
2022-08-17T13:18:40.068Z,96859.16
2022-08-17T13:21:13.923Z,96839.88
2022-08-17T13:23:53.490Z,96849.03
2022-08-17T13:26:28.219Z,96847.22
2022-08-17T13:28:56.611Z,96840.69
2022-08-17T13:31:42.847Z,96841.78
2022-08-17T13:34:48.978Z,96853.13
2022-08-17T13:37:30.444Z,96837.47
2022-08-17T13:40:21.089Z,96836.28
2022-08-17T13:42:53.961Z,96836.44
2022-08-17T13:45:39.180Z,96846.91
2022-08-17T13:48:14.121Z,96833.16
2022-08-17T13:50:46.424Z,96833.47
2022-08-17T13:53:20.927Z,96826.53
2022-08-17T13:55:51.737Z,96829.72
2022-08-17T13:58:27.236Z,96828.00
2022-08-17T14:00:56.435Z,96825.97
2022-08-17T14:03:26.084Z,96827.03
2022-08-17T14:05:56.261Z,96828.69
2022-08-17T14:08:26.493Z,96821.81
2022-08-17T14:10:59.142Z,96829.91
2022-08-17T14:13:28.803Z,96830.25
2022-08-17T14:15:57.123Z,96832.84
2022-08-17T14:18:31.247Z,96827.25
2022-08-17T14:21:16.035Z,96829.66
2022-08-17T14:23:54.238Z,96829.53
2022-08-17T14:26:23.243Z,96831.44
2022-08-17T14:28:54.465Z,96824.38
2022-08-17T14:31:25.122Z,96815.97
2022-08-17T14:33:53.333Z,96815.88
2022-08-17T14:36:23.201Z,96806.53
2022-08-17T14:38:51.514Z,96805.13
2022-08-17T14:41:22.167Z,96810.47
2022-08-17T14:43:53.000Z,96808.09
2022-08-17T14:46:21.437Z,96801.50
2022-08-17T14:48:57.143Z,96797.81
2022-08-17T14:51:30.035Z,96804.22
2022-08-17T14:53:58.494Z,96805.34
2022-08-17T14:56:27.252Z,96794.63
2022-08-17T14:59:00.173Z,96800.34
2022-08-17T15:01:28.619Z,96795.47
2022-08-17T15:04:00.403Z,96792.66
2022-08-17T15:06:30.153Z,96803.34
2022-08-17T15:08:58.743Z,96794.75
2022-08-17T15:11:27.133Z,96791.09
2022-08-17T15:13:55.468Z,96792.00
2022-08-17T15:16:24.355Z,96788.94
2022-08-17T15:18:52.813Z,96791.59
2022-08-17T15:21:21.263Z,96796.47
2022-08-17T15:23:51.201Z,96804.47
2022-08-17T15:26:24.110Z,96800.03
2022-08-17T15:28:57.906Z,96800.78
2022-08-17T15:31:32.367Z,96805.28
2022-08-17T15:34:00.998Z,96802.22
2022-08-17T15:36:29.452Z,96799.72
2022-08-17T15:39:00.228Z,96795.09
2022-08-17T15:41:29.462Z,96801.03
2022-08-17T15:43:57.831Z,96802.63
2022-08-17T15:46:26.883Z,96800.19
2022-08-17T15:48:59.964Z,96798.94
2022-08-17T15:51:30.781Z,96795.03
2022-08-17T15:54:04.507Z,96798.53
2022-08-17T15:56:47.475Z,96812.25
2022-08-17T15:59:15.852Z,96798.47
2022-08-17T16:03:15.017Z,96797.25
2022-08-17T16:04:33.042Z,96800.78
2022-08-17T16:07:01.748Z,96798.72
2022-08-17T16:09:31.475Z,96791.31
2022-08-17T16:12:00.293Z,96788.72
2022-08-17T16:14:32.453Z,96788.78
2022-08-17T16:17:02.607Z,96782.38
2022-08-17T16:19:30.878Z,96793.50
2022-08-17T16:21:59.614Z,96797.66
2022-08-17T16:24:27.881Z,96786.63
2022-08-17T16:26:57.695Z,96794.72
2022-08-17T16:29:26.129Z,96795.59
2022-08-17T16:31:54.571Z,96793.47
2022-08-17T16:34:22.951Z,96793.50
2022-08-17T16:36:56.115Z,96792.44
2022-08-17T16:39:26.863Z,96797.66
2022-08-17T16:41:56.098Z,96784.13
2022-08-17T16:44:29.076Z,96791.81
2022-08-17T16:46:57.499Z,96781.41
2022-08-17T16:49:36.941Z,96790.94
2022-08-17T16:52:09.879Z,96781.78
2022-08-17T16:54:40.906Z,96793.06
2022-08-17T16:57:10.101Z,96790.25
2022-08-17T16:59:43.563Z,96785.69
2022-08-17T17:02:18.780Z,96784.06
2022-08-17T17:04:51.904Z,96790.06
2022-08-17T17:07:37.323Z,96792.28
2022-08-17T17:10:10.076Z,96794.84
2022-08-17T17:13:02.781Z,96799.50
2022-08-17T17:15:43.057Z,96792.56
2022-08-17T17:18:14.854Z,96792.84
2022-08-17T17:20:47.838Z,96796.81
2022-08-17T17:23:26.197Z,96794.16
2022-08-17T17:26:02.936Z,96796.03
2022-08-17T17:28:38.366Z,96796.44
2022-08-17T17:31:12.426Z,96802.75
2022-08-17T17:33:44.465Z,96806.81
2022-08-17T17:36:23.614Z,96800.28
2022-08-17T17:38:55.151Z,96798.81
2022-08-17T17:41:33.969Z,96804.19
2022-08-17T17:44:05.565Z,96811.84
2022-08-17T17:46:39.018Z,96807.56
2022-08-17T17:49:09.486Z,96806.91
2022-08-17T17:52:06.361Z,96800.97
2022-08-17T17:55:01.369Z,96793.16
2022-08-17T17:57:36.392Z,96800.84
2022-08-17T18:00:09.235Z,96803.66
2022-08-17T18:03:02.625Z,96811.09
2022-08-17T18:05:50.007Z,96802.81
2022-08-17T18:08:41.457Z,96800.22
2022-08-17T18:11:24.688Z,96814.97
2022-08-17T18:14:04.073Z,96815.47
2022-08-17T18:16:33.955Z,96818.84
2022-08-17T18:19:03.694Z,96815.03
2022-08-17T18:21:38.783Z,96807.53
2022-08-17T18:24:11.112Z,96803.53
2022-08-17T18:26:58.152Z,96808.31
2022-08-17T18:29:34.368Z,96817.78
2022-08-17T18:32:31.339Z,96814.81
2022-08-17T18:35:05.411Z,96817.69
2022-08-17T18:37:44.975Z,96819.34
2022-08-17T18:40:30.102Z,96820.03
2022-08-17T18:43:03.987Z,96815.97
2022-08-17T18:45:35.499Z,96815.47
2022-08-17T18:48:04.172Z,96810.09
2022-08-17T18:50:41.286Z,96810.25
2022-08-17T18:53:34.068Z,96809.06
2022-08-17T18:56:23.258Z,96803.56
2022-08-17T18:59:02.667Z,96800.56
2022-08-17T19:01:47.193Z,96798.56
2022-08-17T19:04:34.132Z,96796.69
2022-08-17T19:07:10.277Z,96800.41
2022-08-17T19:09:44.348Z,96800.47
2022-08-17T19:12:27.117Z,96798.25
2022-08-17T19:14:57.599Z,96795.56
2022-08-17T19:17:32.954Z,96798.75
2022-08-17T19:20:05.485Z,96798.75
2022-08-17T19:22:55.921Z,96804.13
2022-08-17T19:25:29.021Z,96814.19
2022-08-17T19:28:04.945Z,96815.63
2022-08-17T19:30:51.896Z,96809.09
2022-08-17T19:33:21.005Z,96802.94
2022-08-17T19:35:53.876Z,96806.63
2022-08-17T19:38:31.502Z,96813.28
2022-08-17T19:41:04.651Z,96814.84
2022-08-17T19:43:49.105Z,96817.88
2022-08-17T19:46:30.693Z,96821.25
2022-08-17T19:49:10.129Z,96830.97
2022-08-17T19:51:45.057Z,96850.22
2022-08-17T19:54:20.842Z,96854.72
2022-08-17T19:56:58.128Z,96863.56
2022-08-17T19:59:49.579Z,96871.66
2022-08-17T20:02:27.438Z,96876.06
2022-08-17T20:05:01.474Z,96885.72
2022-08-17T20:07:32.741Z,96894.72
2022-08-17T20:10:05.484Z,96910.53
2022-08-17T20:12:36.753Z,96903.31
2022-08-17T20:15:10.633Z,96904.09
2022-08-17T20:17:42.077Z,96906.03
2022-08-17T20:20:21.779Z,96910.22
2022-08-17T20:22:55.714Z,96915.50
2022-08-17T20:25:32.768Z,96909.78
2022-08-17T20:28:06.164Z,96917.13
2022-08-17T20:30:38.589Z,96922.31
2022-08-17T20:33:08.311Z,96924.28
2022-08-17T20:35:41.637Z,96916.84
2022-08-17T20:38:12.856Z,96913.34
2022-08-17T20:41:11.409Z,96910.13
2022-08-17T20:43:51.233Z,96926.13
2022-08-17T20:46:26.898Z,96935.53
2022-08-17T20:48:58.612Z,96931.88
2022-08-17T20:51:30.546Z,96929.88
2022-08-17T20:54:27.513Z,96925.41
2022-08-17T20:56:59.595Z,96928.03
2022-08-17T21:00:01.341Z,96925.72
2022-08-17T21:02:30.296Z,96930.75
2022-08-17T21:05:30.043Z,96921.28
2022-08-17T21:08:00.881Z,96912.78
2022-08-17T21:10:37.023Z,96913.50
2022-08-17T21:13:53.352Z,96908.00
2022-08-17T21:16:32.809Z,96913.59
2022-08-17T21:19:16.978Z,96932.66
2022-08-17T21:21:53.200Z,96935.34
2022-08-17T21:24:35.060Z,96926.06
2022-08-17T21:27:09.364Z,96925.91
2022-08-17T21:29:53.587Z,96924.38
2022-08-17T21:32:30.334Z,96921.31
2022-08-17T21:35:28.697Z,96922.28
2022-08-17T21:38:00.835Z,96928.66
2022-08-17T21:40:31.407Z,96922.50
2022-08-17T21:43:03.206Z,96920.88
2022-08-17T21:45:35.654Z,96932.34
2022-08-17T21:48:15.430Z,96931.00
2022-08-17T21:50:46.471Z,96942.19
2022-08-17T21:53:22.903Z,96940.66
2022-08-17T21:55:52.320Z,96950.34
2022-08-17T21:58:30.103Z,96948.19
2022-08-17T22:01:20.391Z,96946.53
2022-08-17T22:03:56.605Z,96942.88
2022-08-17T22:06:27.820Z,96951.81
2022-08-17T22:09:02.237Z,96948.69
2022-08-17T22:11:30.676Z,96950.84
2022-08-17T22:14:05.224Z,96945.75
2022-08-17T22:16:35.895Z,96938.84
2022-08-17T22:19:06.643Z,96938.31
2022-08-17T22:21:35.019Z,96930.22
2022-08-17T22:24:06.099Z,96930.16
2022-08-17T22:27:00.305Z,96933.53
2022-08-17T22:29:47.129Z,96929.66
2022-08-17T22:32:37.423Z,96920.41
2022-08-17T22:35:40.690Z,96913.50
2022-08-17T22:38:33.910Z,96905.31
2022-08-17T22:41:38.233Z,96891.91
2022-08-17T22:44:17.275Z,96884.56
2022-08-17T22:46:58.849Z,96863.47
2022-08-17T22:49:31.111Z,96846.41
2022-08-17T22:52:22.925Z,96835.16
2022-08-17T22:55:31.368Z,96830.97
2022-08-17T22:58:17.710Z,96828.13
2022-08-17T23:00:47.845Z,96826.91
2022-08-17T23:03:19.699Z,96837.34
2022-08-17T23:06:03.469Z,96853.44
2022-08-17T23:08:34.048Z,96872.13
2022-08-17T23:11:02.522Z,96885.97
2022-08-17T23:13:33.514Z,96890.19
2022-08-17T23:16:02.470Z,96894.56
2022-08-17T23:18:30.678Z,96899.38
2022-08-17T23:21:01.029Z,96897.66
2022-08-17T23:23:31.445Z,96912.91
2022-08-17T23:25:59.705Z,96916.56
2022-08-17T23:28:28.595Z,96923.63
2022-08-17T23:30:56.837Z,96935.81
2022-08-17T23:33:30.501Z,96937.44
2022-08-17T23:36:00.269Z,96941.72
2022-08-17T23:38:29.272Z,96944.84
2022-08-17T23:41:00.996Z,96928.75
2022-08-17T23:46:17.428Z,96922.44
2022-08-17T23:48:45.909Z,96930.03
2022-08-17T23:51:19.519Z,96931.31
2022-08-17T23:53:51.458Z,96945.63
2022-08-17T23:56:24.302Z,96939.03
2022-08-17T23:58:53.134Z,96947.06
